Time;durP1;ratioP1;P1;durP2;ratioP2;P2;SDS_P1;SDS_P2;PMS_P1;PMS_P2;Temp;Humidity;BMP_temperature;BMP_pressure;BME280_temperature;BME280_humidity;BME280_pressure;Samples;Min_cycle;Max_cycle;Signal;HPM_P1;HPM_P2
2021/03/18 00:01:49;;;;;;;11.48;5.62;;;;;;;2.12;100.00;99222.45;4215634;81;28557;-79
2021/03/18 00:07:52;;;;;;;12.90;5.53;;;;;;;2.18;100.00;99232.39;4232402;82;28595;-79
2021/03/18 00:13:54;;;;;;;10.10;5.15;;;;;;;2.12;100.00;99227.76;4391835;80;28599;-78
2021/03/18 00:19:57;;;;;;;11.20;5.47;;;;;;;2.16;100.00;99233.55;4374168;80;28596;-78
2021/03/18 00:26:00;;;;;;;10.23;4.90;;;;;;;2.19;100.00;99231.91;4373315;80;28547;-78
2021/03/18 00:32:02;;;;;;;9.60;4.72;;;;;;;2.09;100.00;99226.30;4347885;80;28590;-78
2021/03/18 00:38:05;;;;;;;10.30;4.45;;;;;;;2.26;100.00;99229.39;4350281;80;28543;-78
2021/03/18 00:44:07;;;;;;;9.18;5.20;;;;;;;2.02;100.00;99225.31;4247720;82;28598;-77
2021/03/18 00:50:15;;;;;;;10.18;5.03;;;;;;;2.04;100.00;99228.63;4244518;82;28601;-77
2021/03/18 00:56:21;;;;;;;8.58;4.45;;;;;;;2.05;100.00;99230.79;4250618;82;28614;-77
2021/03/18 01:02:25;;;;;;;9.55;5.03;;;;;;;2.14;100.00;99220.97;4267217;82;28585;-77
2021/03/18 01:08:29;;;;;;;9.93;4.75;;;;;;;1.97;100.00;99220.20;4287302;83;28555;-76
2021/03/18 01:14:33;;;;;;;9.30;4.53;;;;;;;1.98;100.00;99216.55;4288473;82;33523;-77
2021/03/18 01:20:35;;;;;;;8.33;4.47;;;;;;;1.98;100.00;99205.45;4286516;83;28621;-76
2021/03/18 01:26:40;;;;;;;9.95;4.50;;;;;;;1.97;100.00;99201.64;4296537;82;42765;-77
2021/03/18 01:32:44;;;;;;;10.00;5.00;;;;;;;1.90;100.00;99204.95;4274816;83;28594;-77
2021/03/18 01:38:47;;;;;;;8.98;4.47;;;;;;;1.93;100.00;99202.47;4290281;83;28651;-81
2021/03/18 01:44:49;;;;;;;10.48;5.47;;;;;;;1.94;100.00;99206.29;4282668;82;28688;-80
2021/03/18 01:50:52;;;;;;;8.68;4.37;;;;;;;1.98;100.00;99209.92;4283239;83;28558;-81
2021/03/18 01:56:58;;;;;;;8.48;4.28;;;;;;;1.88;100.00;99209.61;4289845;82;28553;-80
2021/03/18 02:03:01;;;;;;;7.90;3.77;;;;;;;1.79;100.00;99208.81;4280581;82;28569;-79
2021/03/18 02:09:04;;;;;;;8.80;4.37;;;;;;;1.92;100.00;99214.89;4282117;82;28556;-77
2021/03/18 02:15:08;;;;;;;9.03;5.17;;;;;;;1.90;100.00;99220.87;4279904;82;28647;-77
2021/03/18 02:21:54;;;;;;;9.13;5.03;;;;;;;1.70;100.00;99215.61;4271257;82;28570;-77
2021/03/18 02:28:33;;;;;;;13.70;5.83;;;;;;;1.74;100.00;99213.78;4269975;82;28586;-77
2021/03/18 02:35:11;;;;;;;12.18;6.22;;;;;;;1.80;100.00;99218.91;4279475;82;28560;-79
2021/03/18 02:41:19;;;;;;;10.82;6.25;;;;;;;1.65;100.00;99216.12;4276133;82;43343;-78
2021/03/18 02:47:25;;;;;;;13.05;7.35;;;;;;;1.63;100.00;99212.33;4284968;82;43953;-79
2021/03/18 02:53:32;;;;;;;12.28;6.83;;;;;;;1.46;100.00;99221.29;4272992;82;43287;-78
2021/03/18 02:59:38;;;;;;;15.63;9.30;;;;;;;1.44;100.00;99225.42;4285566;82;28549;-79
2021/03/18 03:05:41;;;;;;;17.17;9.85;;;;;;;1.29;100.00;99229.23;4289436;82;43960;-78
2021/03/18 03:11:43;;;;;;;15.23;8.75;;;;;;;1.19;100.00;99235.20;4304770;82;28600;-79
2021/03/18 03:17:47;;;;;;;16.00;9.10;;;;;;;1.35;100.00;99233.89;4287860;82;43940;-77
2021/03/18 03:23:51;;;;;;;16.45;9.53;;;;;;;1.27;100.00;99223.28;4271574;82;28557;-79
2021/03/18 03:29:54;;;;;;;19.75;10.63;;;;;;;1.35;100.00;99228.59;4291748;82;44460;-79
2021/03/18 03:35:58;;;;;;;16.42;10.35;;;;;;;1.10;100.00;99241.00;4279087;82;28679;-80
2021/03/18 03:42:04;;;;;;;19.73;10.43;;;;;;;1.15;100.00;99237.86;4279689;82;44433;-79
2021/03/18 03:48:06;;;;;;;;;;;;;;;1.26;100.00;99232.23;4307504;82;28572;-78
2021/03/18 03:54:11;;;;;;;18.70;10.23;;;;;;;1.28;100.00;99236.05;4278227;82;44480;-78
2021/03/18 04:00:14;;;;;;;18.07;11.28;;;;;;;1.23;100.00;99247.14;4278416;82;44430;-79
2021/03/18 04:06:20;;;;;;;18.32;10.03;;;;;;;1.09;100.00;99243.31;4259591;82;28582;-78
2021/03/18 04:12:28;;;;;;;18.48;11.60;;;;;;;1.07;100.00;99254.58;4282966;82;28634;-77
2021/03/18 04:18:35;;;;;;;17.00;10.28;;;;;;;0.93;100.00;99266.12;4293363;82;44497;-77
2021/03/18 04:24:39;;;;;;;15.90;9.88;;;;;;;0.71;100.00;99263.61;4291827;82;28538;-78
2021/03/18 04:30:42;;;;;;;15.00;8.65;;;;;;;0.82;100.00;99263.30;4268028;82;43927;-78
2021/03/18 04:36:45;;;;;;;14.45;7.35;;;;;;;1.42;100.00;99263.70;4294670;82;43922;-77
2021/03/18 04:42:48;;;;;;;13.75;7.83;;;;;;;0.83;100.00;99275.55;4207585;84;43965;-77
2021/03/18 04:48:54;;;;;;;13.13;7.40;;;;;;;0.79;100.00;99266.28;4285278;82;43934;-78
2021/03/18 04:54:57;;;;;;;11.83;6.60;;;;;;;1.02;100.00;99271.44;4276168;82;43267;-78
2021/03/18 05:00:59;;;;;;;14.38;7.33;;;;;;;0.76;100.00;99284.30;4281244;82;43937;-79
2021/03/18 05:07:03;;;;;;;13.38;7.33;;;;;;;0.97;100.00;99273.25;4271555;82;43965;-76
2021/03/18 05:13:09;;;;;;;14.87;7.72;;;;;;;0.79;100.00;99280.00;4325421;81;43903;-78
2021/03/18 05:19:13;;;;;;;11.35;6.80;;;;;;;0.95;100.00;99278.72;4317026;82;43237;-79
2021/03/18 05:25:22;;;;;;;12.45;6.55;;;;;;;0.73;100.00;99292.54;4327209;81;43557;-78
2021/03/18 05:31:25;;;;;;;13.90;7.58;;;;;;;1.01;100.00;99289.16;4275382;82;28562;-78
2021/03/18 05:37:27;;;;;;;13.70;7.80;;;;;;;0.94;100.00;99296.92;4277989;82;43904;-79
2021/03/18 05:43:30;;;;;;;13.08;7.28;;;;;;;1.13;100.00;99287.52;4283198;82;43960;-77
2021/03/18 05:49:32;;;;;;;16.42;8.23;;;;;;;0.82;100.00;99293.74;4270227;82;43910;-79
2021/03/18 05:55:35;;;;;;;12.10;6.78;;;;;;;0.97;100.00;99291.78;4288635;82;43254;-79
2021/03/18 06:01:41;;;;;;;14.10;7.45;;;;;;;0.88;100.00;99310.80;4289730;82;43952;-77
2021/03/18 06:07:48;;;;;;;11.28;6.30;;;;;;;0.74;100.00;99310.92;4296941;82;43218;-78
2021/03/18 06:13:50;;;;;;;15.83;6.78;;;;;;;0.89;100.00;99307.16;4244862;82;43901;-78
2021/03/18 06:19:53;;;;;;;12.07;6.37;;;;;;;0.82;100.00;99318.05;4305391;82;28545;-77
2021/03/18 06:25:55;;;;;;;10.60;6.20;;;;;;;0.96;100.00;99313.47;4242728;82;43215;-74
2021/03/18 06:32:23;;;;;;;9.80;5.95;;;;;;;1.03;100.00;99322.08;4238786;82;43006;-74
2021/03/18 06:38:32;;;;;;;10.90;6.12;;;;;;;1.07;100.00;99320.27;4305124;82;43269;-74
2021/03/18 06:44:35;;;;;;;14.95;6.30;;;;;;;1.35;100.00;99324.45;4242578;82;43957;-74
2021/03/18 06:50:47;;;;;;;9.73;5.28;;;;;;;1.58;100.00;99335.23;4303380;82;28631;-74
2021/03/18 06:56:59;;;;;;;10.82;6.20;;;;;;;1.71;100.00;99334.75;4252691;82;43312;-75
2021/03/18 07:03:01;;;;;;;10.98;5.37;;;;;;;1.22;100.00;99331.57;4305845;82;28667;-74
2021/03/18 07:09:11;;;;;;;8.88;4.87;;;;;;;1.39;100.00;99339.85;4236040;82;28625;-75
2021/03/18 07:15:18;;;;;;;10.38;5.20;;;;;;;1.34;100.00;99338.69;4307458;81;43587;-74
2021/03/18 07:21:39;;;;;;;12.82;4.53;;;;;;;1.11;100.00;99350.75;4239841;82;43286;-74
2021/03/18 07:27:46;;;;;;;9.45;4.58;;;;;;;1.60;100.00;99337.73;4243418;82;42750;-78
2021/03/18 07:33:50;;;;;;;12.15;5.22;;;;;;;1.86;100.00;99328.28;4321462;81;43209;-78
2021/03/18 07:39:52;;;;;;;9.40;4.72;;;;;;;2.06;100.00;99326.59;4294076;82;28589;-81
2021/03/18 07:45:58;;;;;;;8.85;4.50;;;;;;;1.93;100.00;99327.11;4314163;82;28668;-80
2021/03/18 07:52:04;;;;;;;12.00;5.03;;;;;;;1.88;100.00;99332.09;4221834;82;29043;-82
2021/03/18 07:58:06;;;;;;;10.40;4.67;;;;;;;2.15;100.00;99322.09;4290423;82;28658;-79
2021/03/18 08:04:12;;;;;;;8.80;4.40;;;;;;;1.97;100.00;99343.00;4249051;82;29036;-78
2021/03/18 08:10:28;;;;;;;8.60;3.85;;;;;;;2.02;100.00;99334.55;4263332;82;28604;-78
2021/03/18 08:16:32;;;;;;;13.62;4.10;;;;;;;2.46;100.00;99342.09;4278308;82;28587;-78
2021/03/18 08:22:36;;;;;;;;;;;;;;;2.28;100.00;99336.98;4291595;82;28623;-78
2021/03/18 08:28:59;;;;;;;7.22;3.12;;;;;;;2.58;100.00;99321.30;4291918;82;20200;-77
2021/03/18 08:35:06;;;;;;;5.00;2.65;;;;;;;2.38;100.00;99324.86;4282675;82;28605;-78
2021/03/18 08:41:40;;;;;;;7.78;2.60;;;;;;;2.43;95.24;99319.05;4279443;82;28590;-79
2021/03/18 08:47:46;;;;;;;3.80;2.10;;;;;;;2.37;85.66;99322.69;4291936;82;28548;-78
2021/03/18 08:53:51;;;;;;;4.83;1.60;;;;;;;2.32;86.63;99319.73;4286045;82;28611;-75
2021/03/18 09:00:00;;;;;;;3.12;1.80;;;;;;;2.41;87.61;99324.52;4276041;82;28578;-75
2021/03/18 09:06:05;;;;;;;4.37;1.90;;;;;;;2.53;87.21;99317.50;4332170;82;28678;-75
2021/03/18 09:12:09;;;;;;;5.80;1.92;;;;;;;2.67;89.86;99311.48;4222441;83;28566;-78
2021/03/18 09:18:22;;;;;;;3.87;2.22;;;;;;;2.96;91.12;99313.98;4324517;81;28572;-76
2021/03/18 09:24:40;;;;;;;5.00;2.33;;;;;;;3.43;87.98;99316.16;4292853;82;28642;-76
2021/03/18 09:30:52;;;;;;;2.70;1.22;;;;;;;3.85;84.37;99300.70;4279650;82;28609;-75
2021/03/18 09:36:54;;;;;;;3.77;1.10;;;;;;;3.27;82.89;99317.11;4274163;82;28552;-77
2021/03/18 09:42:56;;;;;;;2.67;1.10;;;;;;;3.54;78.01;99309.61;4280538;82;28933;-75
2021/03/18 09:48:59;;;;;;;4.53;1.27;;;;;;;4.17;79.16;99294.73;4290463;82;28558;-79
2021/03/18 09:55:07;;;;;;;3.60;1.37;;;;;;;4.23;75.38;99291.03;4278403;82;28597;-78
2021/03/18 10:01:23;;;;;;;2.08;1.30;;;;;;;4.02;69.83;99296.56;4292463;82;28545;-75
2021/03/18 10:14:16;;;;;;;2.65;1.30;;;;;;;4.47;75.42;99279.24;3840093;91;28602;-76
2021/03/18 10:20:33;;;;;;;5.17;1.20;;;;;;;4.00;72.23;99283.44;4393323;79;84884;-78
2021/03/18 10:26:36;;;;;;;2.47;1.07;;;;;;;3.83;66.55;99284.59;4310864;80;28544;-80
2021/03/18 10:32:40;;;;;;;2.17;0.70;;;;;;;4.50;65.76;99279.39;4312384;80;28627;-77
2021/03/18 10:38:42;;;;;;;1.37;0.40;;;;;;;3.89;62.95;99279.38;4308466;81;28565;-77
2021/03/18 10:44:47;;;;;;;1.15;0.80;;;;;;;3.60;57.66;99272.17;4310408;81;28622;-76
2021/03/18 10:50:51;;;;;;;2.30;1.22;;;;;;;4.08;57.52;99272.39;4330561;80;28612;-79
2021/03/18 10:56:59;;;;;;;3.22;0.90;;;;;;;4.27;63.44;99283.83;4300687;81;28624;-77
2021/03/18 11:03:17;;;;;;;3.20;1.30;;;;;;;3.86;61.32;99277.61;4308599;81;28547;-79
2021/03/18 11:09:20;;;;;;;5.37;2.30;;;;;;;3.81;63.68;99267.51;4259556;82;28943;-78
2021/03/18 11:15:22;;;;;;;5.50;2.92;;;;;;;4.31;68.44;99254.98;4185798;82;28553;-80
2021/03/18 11:21:32;;;;;;;4.75;2.37;;;;;;;4.29;71.01;99255.67;4208684;84;28568;-84
2021/03/18 11:27:36;;;;;;;4.78;2.30;;;;;;;4.16;68.67;99243.84;4216077;84;28569;-87
2021/03/18 11:33:39;;;;;;;4.53;1.85;;;;;;;4.21;62.65;99258.42;4281841;82;28596;-82
2021/03/18 11:39:42;;;;;;;3.20;1.60;;;;;;;4.34;61.99;99241.32;4195916;84;28549;-86
2021/03/18 11:45:44;;;;;;;4.30;1.98;;;;;;;4.19;59.49;99239.48;4241612;84;28553;-85
2021/03/18 11:51:47;;;;;;;3.77;2.10;;;;;;;4.30;61.05;99230.70;4240319;82;28558;-87
2021/03/18 11:57:58;;;;;;;4.85;2.50;;;;;;;3.84;69.00;99269.80;4328112;81;28544;-85
2021/03/18 12:04:01;;;;;;;4.08;2.20;;;;;;;3.88;68.38;99229.84;4352107;81;28550;-85
2021/03/18 12:10:04;;;;;;;3.83;2.00;;;;;;;4.35;63.00;99223.00;4334138;81;28572;-83
2021/03/18 12:16:07;;;;;;;6.45;2.67;;;;;;;4.77;60.86;99211.27;4354275;81;28639;-86
2021/03/18 12:22:09;;;;;;;6.75;3.27;;;;;;;4.66;62.44;99197.96;4161619;84;28563;-83
2021/03/18 12:28:16;;;;;;;4.95;2.35;;;;;;;3.89;71.72;99199.57;4162300;84;28573;-84
2021/03/18 12:34:19;;;;;;;4.60;2.50;;;;;;;4.05;64.50;99206.54;4213616;83;28612;-84
2021/03/18 12:40:26;;;;;;;5.80;2.65;;;;;;;3.50;63.42;99200.66;4197551;83;43451;-87
2021/03/18 12:46:28;;;;;;;8.03;3.58;;;;;;;4.52;59.78;99189.00;4161493;84;28589;-84
2021/03/18 12:52:31;;;;;;;9.23;3.98;;;;;;;4.96;60.64;99185.86;4161396;84;28557;-85
2021/03/18 12:58:33;;;;;;;7.87;3.35;;;;;;;4.13;63.61;99194.16;4214829;83;28592;-82
2021/03/18 13:04:36;;;;;;;7.80;3.75;;;;;;;3.72;62.33;99182.16;4203525;84;28643;-82
2021/03/18 13:10:38;;;;;;;6.62;3.72;;;;;;;3.99;62.30;99171.38;4233555;83;28560;-82
2021/03/18 13:16:42;;;;;;;5.60;3.17;;;;;;;4.68;61.73;99155.97;4171171;85;28607;-83
2021/03/18 13:22:46;;;;;;;7.83;3.47;;;;;;;4.59;60.73;99161.10;4179042;84;28616;-84
2021/03/18 13:28:48;;;;;;;9.78;4.15;;;;;;;4.30;59.43;99148.19;4137434;84;28694;-83
2021/03/18 13:34:50;;;;;;;6.67;3.90;;;;;;;4.02;57.83;99164.34;4170555;83;28581;-82
2021/03/18 13:40:54;;;;;;;8.40;4.40;;;;;;;3.91;58.55;99152.84;4292943;81;28555;-83
2021/03/18 13:46:58;;;;;;;6.15;3.77;;;;;;;3.92;60.22;99157.16;4281510;81;28662;-84
2021/03/18 13:53:01;;;;;;;8.03;4.03;;;;;;;3.95;59.54;99147.98;4104290;85;28557;-83
2021/03/18 13:59:04;;;;;;;6.28;3.70;;;;;;;3.81;59.84;99150.48;4154489;83;28662;-79
2021/03/18 14:05:07;;;;;;;7.85;3.83;;;;;;;4.15;56.56;99147.73;4254312;83;28555;-79
2021/03/18 14:11:09;;;;;;;6.30;3.80;;;;;;;4.36;53.36;99139.95;4272847;81;28558;-79
2021/03/18 14:17:12;;;;;;;8.60;3.80;;;;;;;4.33;54.64;99138.52;4182463;83;28580;-78
2021/03/18 14:23:16;;;;;;;8.18;4.40;;;;;;;4.17;56.27;99136.91;4210703;84;28557;-78
2021/03/18 14:29:18;;;;;;;6.22;3.65;;;;;;;4.05;57.91;99127.23;4214888;83;28664;-80
2021/03/18 14:35:22;;;;;;;7.17;3.70;;;;;;;3.93;56.45;99126.88;4332343;81;28596;-79
2021/03/18 14:41:25;;;;;;;7.83;4.62;;;;;;;3.86;55.09;99112.17;4340168;81;28620;-79
2021/03/18 14:47:28;;;;;;;6.67;4.05;;;;;;;3.79;58.42;99127.73;4341933;81;28658;-79
2021/03/18 14:53:30;;;;;;;5.37;2.80;;;;;;;3.54;57.55;99110.71;4338836;81;28550;-79
2021/03/18 14:59:34;;;;;;;8.03;3.17;;;;;;;3.63;54.11;99114.44;4334251;81;28577;-79
2021/03/18 15:05:36;;;;;;;6.97;3.20;;;;;;;3.72;51.37;99103.19;4339838;81;28537;-79
2021/03/18 15:11:39;;;;;;;7.58;3.00;;;;;;;3.58;52.67;99099.53;4332943;81;28544;-81
2021/03/18 15:17:45;;;;;;;6.08;2.65;;;;;;;3.33;51.34;99105.12;4333861;81;28624;-79
2021/03/18 15:23:50;;;;;;;4.87;2.77;;;;;;;3.54;52.12;99102.25;4318688;82;28611;-81
2021/03/18 15:29:54;;;;;;;5.17;3.33;;;;;;;3.44;52.87;99091.91;4315343;82;28572;-78
2021/03/18 15:35:56;;;;;;;6.15;2.95;;;;;;;3.48;54.41;99093.66;4303901;82;28658;-79
2021/03/18 15:41:59;;;;;;;9.20;3.12;;;;;;;3.46;55.13;99085.05;4311142;82;28606;-78
2021/03/18 15:48:04;;;;;;;5.03;2.95;;;;;;;3.28;54.76;99092.06;4309592;82;28565;-79
2021/03/18 15:54:07;;;;;;;6.08;3.20;;;;;;;3.33;56.14;99092.33;4312561;82;28556;-80
2021/03/18 16:00:13;;;;;;;4.87;2.67;;;;;;;3.03;55.24;99082.50;4303384;82;28580;-79
2021/03/18 16:06:15;;;;;;;;;;;;;;;2.89;54.84;99085.97;4325282;82;28566;-79
2021/03/18 16:12:17;;;;;;;4.97;2.30;;;;;;;2.92;55.05;99090.91;4313114;82;43388;-82
2021/03/18 16:18:20;;;;;;;4.30;2.55;;;;;;;2.91;53.85;99080.77;4313401;81;28614;-81
2021/03/18 16:24:22;;;;;;;3.42;1.80;;;;;;;2.87;54.04;99083.48;4174232;84;28616;-80
2021/03/18 16:30:26;;;;;;;4.22;2.10;;;;;;;2.92;53.86;99088.25;4227426;82;28936;-79
2021/03/18 16:36:30;;;;;;;4.17;2.65;;;;;;;2.90;54.56;99083.63;4194820;83;28628;-80
2021/03/18 16:42:33;;;;;;;4.70;2.47;;;;;;;2.58;55.40;99088.21;4179559;84;28656;-80
2021/03/18 16:48:38;;;;;;;4.47;2.42;;;;;;;2.39;57.22;99092.15;4174853;84;28591;-79
2021/03/18 16:54:41;;;;;;;4.83;2.40;;;;;;;2.18;57.57;99090.47;4199938;84;28599;-83
2021/03/18 17:00:45;;;;;;;5.05;2.30;;;;;;;2.36;58.05;99088.04;4180098;84;28599;-82
2021/03/18 17:06:48;;;;;;;7.85;2.50;;;;;;;2.29;59.38;99086.59;4201545;84;28598;-80
2021/03/18 17:12:51;;;;;;;7.22;2.98;;;;;;;2.05;60.75;99087.56;4193658;84;28634;-81
2021/03/18 17:18:55;;;;;;;6.10;2.83;;;;;;;1.82;63.45;99093.63;4227022;82;28599;-80
2021/03/18 17:24:58;;;;;;;7.42;3.08;;;;;;;1.81;64.63;99094.63;4268626;82;28661;-80
2021/03/18 17:31:01;;;;;;;5.08;1.98;;;;;;;1.78;64.38;99099.80;4266190;82;43389;-78
2021/03/18 17:37:06;;;;;;;4.58;2.30;;;;;;;2.03;63.15;99087.73;4256712;82;28584;-80
2021/03/18 17:43:27;;;;;;;5.15;2.67;;;;;;;1.79;65.41;99084.70;4599330;76;86164;-83
2021/03/18 17:49:29;;;;;;;9.20;3.70;;;;;;;1.49;67.87;99084.48;4512419;78;28542;-84
2021/03/18 17:55:33;;;;;;;8.73;3.62;;;;;;;1.19;72.62;99087.72;4510461;78;28604;-82
2021/03/18 18:01:38;;;;;;;10.95;3.87;;;;;;;1.15;74.61;99078.47;4509521;78;43260;-80
2021/03/18 18:07:44;;;;;;;9.20;3.83;;;;;;;1.10;75.73;99076.80;4497422;78;42701;-78
2021/03/18 18:13:48;;;;;;;9.85;4.10;;;;;;;1.03;76.78;99075.34;4512210;78;42752;-80
2021/03/18 18:19:53;;;;;;;8.40;4.08;;;;;;;1.04;76.30;99076.14;4529668;77;42719;-82
2021/03/18 18:25:56;;;;;;;9.20;4.25;;;;;;;1.13;75.68;99072.48;4490635;78;42981;-82
2021/03/18 18:31:58;;;;;;;7.10;3.80;;;;;;;1.00;74.99;99072.19;4496269;78;42722;-77
2021/03/18 18:38:01;;;;;;;10.90;4.22;;;;;;;0.79;75.23;99070.89;4501961;77;43246;-76
2021/03/18 18:44:03;;;;;;;7.30;3.77;;;;;;;0.55;80.22;99068.08;4501426;78;42768;-76
2021/03/18 18:50:08;;;;;;;9.55;4.30;;;;;;;0.35;80.31;99072.88;4507812;78;42949;-75
2021/03/18 18:56:10;;;;;;;7.17;3.87;;;;;;;0.42;77.27;99067.75;4506851;79;42685;-73
2021/03/18 19:02:13;;;;;;;8.65;4.30;;;;;;;0.25;77.84;99078.30;4500977;78;42717;-77
2021/03/18 19:08:16;;;;;;;11.70;3.90;;;;;;;0.10;79.94;99075.98;4481246;78;43250;-78
2021/03/18 19:14:19;;;;;;;8.50;4.30;;;;;;;0.01;80.28;99076.95;4483958;78;42714;-76
2021/03/18 19:20:22;;;;;;;14.45;4.87;;;;;;;-0.11;81.60;99086.98;4476064;78;43580;-80
2021/03/18 19:26:24;;;;;;;9.60;4.40;;;;;;;-0.07;82.32;99080.41;4490469;78;42714;-78
2021/03/18 19:32:27;;;;;;;15.13;5.45;;;;;;;-0.10;81.99;99082.05;4486696;78;43977;-78
2021/03/18 19:38:30;;;;;;;11.85;4.87;;;;;;;-0.48;85.01;99078.42;4489213;78;43304;-78
2021/03/18 19:44:33;;;;;;;14.13;5.97;;;;;;;-0.66;86.00;99080.67;4502513;78;43982;-78
2021/03/18 19:50:41;;;;;;;14.83;5.60;;;;;;;-0.40;85.79;99078.47;4504443;78;28561;-86
2021/03/18 19:56:44;;;;;;;13.53;6.15;;;;;;;-0.68;86.45;99081.80;4497714;78;43960;-79
2021/03/18 20:02:49;;;;;;;15.43;6.95;;;;;;;-0.71;87.51;99086.42;4370019;80;43947;-79
2021/03/18 20:08:51;;;;;;;15.07;6.73;;;;;;;-0.64;87.65;99085.78;4370258;80;28633;-79
2021/03/18 20:14:54;;;;;;;19.45;6.08;;;;;;;-0.75;87.76;99081.10;4345067;80;43946;-78
2021/03/18 20:20:59;;;;;;;15.20;7.12;;;;;;;-0.87;89.64;99083.67;4354006;80;43958;-78
2021/03/18 20:27:01;;;;;;;16.75;7.95;;;;;;;-0.94;89.12;99086.59;4361864;80;43942;-78
2021/03/18 20:33:06;;;;;;;18.25;6.53;;;;;;;-1.06;89.22;99090.81;4366204;80;43974;-76
2021/03/18 20:39:10;;;;;;;17.60;6.77;;;;;;;-1.27;90.69;99080.62;4365507;80;34417;-79
2021/03/18 20:45:17;;;;;;;17.55;7.58;;;;;;;-1.38;92.11;99084.81;4314047;81;43946;-80
2021/03/18 20:51:21;;;;;;;22.70;8.58;;;;;;;-1.42;92.52;99075.87;4398237;81;43934;-80
2021/03/18 20:57:23;;;;;;;20.62;9.35;;;;;;;-1.53;95.23;99080.06;4299778;82;43912;-77
2021/03/18 21:03:26;;;;;;;19.57;8.40;;;;;;;-1.38;93.75;99074.27;4394379;81;44038;-78
2021/03/18 21:09:29;;;;;;;16.87;7.75;;;;;;;-1.46;97.46;99075.84;4375814;80;43931;-77
2021/03/18 21:15:33;;;;;;;24.10;10.93;;;;;;;-1.64;97.16;99071.91;4386664;79;43650;-77
2021/03/18 21:21:37;;;;;;;20.12;9.70;;;;;;;-1.62;99.37;99078.33;4297198;82;43923;-78
2021/03/18 21:27:41;;;;;;;25.45;11.20;;;;;;;-1.71;100.00;99080.92;4398641;79;42908;-78
2021/03/18 21:33:46;;;;;;;25.88;11.05;;;;;;;-1.69;100.00;99080.75;4372602;79;43097;-77
2021/03/18 21:39:48;;;;;;;27.25;11.53;;;;;;;-1.61;99.92;99075.55;4375402;80;43399;-79
2021/03/18 21:45:50;;;;;;;27.17;11.50;;;;;;;-1.72;100.00;99075.31;4367737;80;43395;-76
2021/03/18 21:51:54;;;;;;;24.40;10.93;;;;;;;-1.78;100.00;99072.42;4362383;80;43349;-76
2021/03/18 21:57:56;;;;;;;25.85;10.90;;;;;;;-1.78;100.00;99067.98;4373564;80;42867;-76
2021/03/18 22:03:58;;;;;;;23.70;10.05;;;;;;;-1.91;100.00;99065.72;4349009;80;44428;-76
2021/03/18 22:10:01;;;;;;;24.15;11.48;;;;;;;-1.72;100.00;99061.28;4362234;80;43717;-80
2021/03/18 22:16:04;;;;;;;26.00;10.40;;;;;;;-1.76;100.00;99054.67;4370803;80;42938;-76
2021/03/18 22:22:06;;;;;;;25.35;11.80;;;;;;;-1.77;100.00;99060.89;4386376;80;42880;-77
2021/03/18 22:28:09;;;;;;;24.92;10.88;;;;;;;-1.59;100.00;99059.09;4376020;80;43212;-77
2021/03/18 22:34:11;;;;;;;29.37;12.30;;;;;;;-1.47;100.00;99052.25;4379910;80;43483;-76
2021/03/18 22:40:16;;;;;;;24.18;10.82;;;;;;;-1.58;100.00;99052.83;4353349;80;42959;-77
2021/03/18 22:46:18;;;;;;;40.28;16.40;;;;;;;-1.43;100.00;99054.44;4290596;82;28552;-76
2021/03/18 22:52:20;;;;;;;44.65;18.00;;;;;;;-1.38;100.00;99053.98;4293840;81;43742;-76
2021/03/18 22:58:22;;;;;;;45.83;20.35;;;;;;;-1.33;100.00;99045.61;4304216;81;43781;-77
2021/03/18 23:04:25;;;;;;;50.05;21.23;;;;;;;-1.34;100.00;99051.39;4288061;81;44497;-77
2021/03/18 23:10:27;;;;;;;44.10;19.92;;;;;;;-1.25;100.00;99048.31;4277445;81;43741;-77
2021/03/18 23:16:31;;;;;;;64.12;25.55;;;;;;;-1.36;100.00;99052.52;4254333;82;42864;-77
2021/03/18 23:22:37;;;;;;;59.33;22.35;;;;;;;-1.33;100.00;99049.56;4240659;82;44158;-78
2021/03/18 23:28:40;;;;;;;57.88;23.85;;;;;;;-1.35;100.00;99056.33;4249117;82;44083;-77
2021/03/18 23:34:43;;;;;;;55.65;22.42;;;;;;;-1.32;100.00;99052.53;4251845;82;44122;-76
2021/03/18 23:40:45;;;;;;;56.00;22.50;;;;;;;-1.30;100.00;99051.41;4275925;80;44092;-77
2021/03/18 23:46:48;;;;;;;55.65;23.40;;;;;;;-1.32;100.00;99053.38;4348658;81;44099;-78
2021/03/18 23:52:51;;;;;;;64.00;23.40;;;;;;;-1.38;100.00;99049.21;4339993;81;43612;-78
2021/03/18 23:58:53;;;;;;;56.75;21.85;;;;;;;-1.35;100.00;99053.69;4333199;82;44085;-77
